sensor_id;sensor_type;location;lat;lon;timestamp;pressure;altitude;pressure_sealevel;temperature;humidity
62057;BME280;48016;50.284;18.860;2023-08-21T00:01:22;98673.52;;;21.18;77.95
62057;BME280;48016;50.284;18.860;2023-08-21T00:03:48;98675.27;;;21.15;78.23
62057;BME280;48016;50.284;18.860;2023-08-21T00:06:13;98671.08;;;21.13;78.37
62057;BME280;48016;50.284;18.860;2023-08-21T00:08:39;98671.94;;;21.11;78.47
62057;BME280;48016;50.284;18.860;2023-08-21T00:11:05;98676.71;;;21.09;78.64
62057;BME280;48016;50.284;18.860;2023-08-21T00:13:31;98673.89;;;21.08;78.85
62057;BME280;48016;50.284;18.860;2023-08-21T00:15:57;98670.52;;;21.07;79.05
62057;BME280;48016;50.284;18.860;2023-08-21T00:18:23;98665.64;;;21.05;79.04
62057;BME280;48016;50.284;18.860;2023-08-21T00:20:49;98665.08;;;21.03;79.22
62057;BME280;48016;50.284;18.860;2023-08-21T00:23:15;98659.48;;;21.02;79.32
62057;BME280;48016;50.284;18.860;2023-08-21T00:25:45;98664.49;;;20.99;79.45
62057;BME280;48016;50.284;18.860;2023-08-21T00:28:11;98662.80;;;20.97;79.64
62057;BME280;48016;50.284;18.860;2023-08-21T00:30:38;98661.95;;;20.94;79.66
62057;BME280;48016;50.284;18.860;2023-08-21T00:33:04;98656.73;;;20.92;79.68
62057;BME280;48016;50.284;18.860;2023-08-21T00:35:30;98653.04;;;20.87;79.72
62057;BME280;48016;50.284;18.860;2023-08-21T00:37:58;98654.02;;;20.84;80.07
62057;BME280;48016;50.284;18.860;2023-08-21T00:40:24;98656.63;;;20.81;80.15
62057;BME280;48016;50.284;18.860;2023-08-21T00:42:50;98658.35;;;20.78;80.14
62057;BME280;48016;50.284;18.860;2023-08-21T00:45:16;98659.66;;;20.75;80.34
62057;BME280;48016;50.284;18.860;2023-08-21T00:47:42;98655.52;;;20.74;80.39
62057;BME280;48016;50.284;18.860;2023-08-21T00:50:09;98655.48;;;20.73;80.47
62057;BME280;48016;50.284;18.860;2023-08-21T00:52:39;98663.35;;;20.73;80.53
62057;BME280;48016;50.284;18.860;2023-08-21T00:55:07;98662.23;;;20.72;80.70
62057;BME280;48016;50.284;18.860;2023-08-21T00:57:33;98662.60;;;20.70;80.77
62057;BME280;48016;50.284;18.860;2023-08-21T01:00:00;98665.10;;;20.68;80.79
62057;BME280;48016;50.284;18.860;2023-08-21T01:02:26;98669.48;;;20.67;80.89
62057;BME280;48016;50.284;18.860;2023-08-21T01:04:53;98674.52;;;20.65;80.92
62057;BME280;48016;50.284;18.860;2023-08-21T01:07:19;98673.90;;;20.64;80.97
62057;BME280;48016;50.284;18.860;2023-08-21T01:10:50;98673.54;;;20.63;81.16
62057;BME280;48016;50.284;18.860;2023-08-21T01:13:05;98669.31;;;20.61;81.38
62057;BME280;48016;50.284;18.860;2023-08-21T01:15:32;98669.14;;;20.59;81.51
62057;BME280;48016;50.284;18.860;2023-08-21T01:17:59;98670.91;;;20.58;81.49
62057;BME280;48016;50.284;18.860;2023-08-21T01:20:25;98670.16;;;20.57;81.70
62057;BME280;48016;50.284;18.860;2023-08-21T01:22:51;98671.29;;;20.56;81.82
62057;BME280;48016;50.284;18.860;2023-08-21T01:25:18;98669.83;;;20.55;81.86
62057;BME280;48016;50.284;18.860;2023-08-21T01:27:48;98670.79;;;20.54;81.88
62057;BME280;48016;50.284;18.860;2023-08-21T01:30:18;98668.63;;;20.51;81.92
62057;BME280;48016;50.284;18.860;2023-08-21T01:35:17;98668.36;;;20.46;82.20
62057;BME280;48016;50.284;18.860;2023-08-21T01:37:43;98665.95;;;20.44;82.09
62057;BME280;48016;50.284;18.860;2023-08-21T01:40:10;98662.71;;;20.42;82.25
62057;BME280;48016;50.284;18.860;2023-08-21T01:42:36;98658.46;;;20.40;82.33
62057;BME280;48016;50.284;18.860;2023-08-21T01:45:02;98659.23;;;20.38;82.35
62057;BME280;48016;50.284;18.860;2023-08-21T01:47:28;98659.20;;;20.36;82.53
62057;BME280;48016;50.284;18.860;2023-08-21T01:49:54;98657.16;;;20.35;82.70
62057;BME280;48016;50.284;18.860;2023-08-21T01:52:20;98657.23;;;20.33;82.47
62057;BME280;48016;50.284;18.860;2023-08-21T01:54:47;98657.52;;;20.32;82.50
62057;BME280;48016;50.284;18.860;2023-08-21T01:57:13;98658.33;;;20.31;82.55
62057;BME280;48016;50.284;18.860;2023-08-21T01:59:39;98660.28;;;20.30;82.60
62057;BME280;48016;50.284;18.860;2023-08-21T02:02:06;98658.02;;;20.28;82.60
62057;BME280;48016;50.284;18.860;2023-08-21T02:04:31;98661.86;;;20.26;82.63
62057;BME280;48016;50.284;18.860;2023-08-21T02:06:57;98660.16;;;20.23;82.62
62057;BME280;48016;50.284;18.860;2023-08-21T02:09:23;98662.13;;;20.22;82.56
62057;BME280;48016;50.284;18.860;2023-08-21T02:11:49;98658.88;;;20.20;82.57
62057;BME280;48016;50.284;18.860;2023-08-21T02:14:15;98650.94;;;20.17;82.70
62057;BME280;48016;50.284;18.860;2023-08-21T02:16:41;98645.88;;;20.14;82.79
62057;BME280;48016;50.284;18.860;2023-08-21T02:19:07;98647.04;;;20.11;82.88
62057;BME280;48016;50.284;18.860;2023-08-21T02:21:34;98646.59;;;20.09;82.84
62057;BME280;48016;50.284;18.860;2023-08-21T02:24:02;98638.85;;;20.06;83.08
62057;BME280;48016;50.284;18.860;2023-08-21T02:26:28;98637.70;;;20.04;83.02
62057;BME280;48016;50.284;18.860;2023-08-21T02:28:54;98632.47;;;20.03;83.04
62057;BME280;48016;50.284;18.860;2023-08-21T02:31:19;98631.58;;;20.01;83.10
62057;BME280;48016;50.284;18.860;2023-08-21T02:33:46;98631.17;;;19.99;83.15
62057;BME280;48016;50.284;18.860;2023-08-21T02:36:12;98629.31;;;19.97;83.19
62057;BME280;48016;50.284;18.860;2023-08-21T02:38:37;98625.09;;;19.94;83.04
62057;BME280;48016;50.284;18.860;2023-08-21T02:41:04;98621.08;;;19.91;83.25
62057;BME280;48016;50.284;18.860;2023-08-21T02:43:30;98627.24;;;19.89;83.24
62057;BME280;48016;50.284;18.860;2023-08-21T02:45:55;98630.30;;;19.86;83.37
62057;BME280;48016;50.284;18.860;2023-08-21T02:48:21;98631.39;;;19.84;83.41
62057;BME280;48016;50.284;18.860;2023-08-21T02:50:48;98632.24;;;19.83;83.51
62057;BME280;48016;50.284;18.860;2023-08-21T02:53:14;98631.94;;;19.81;83.41
62057;BME280;48016;50.284;18.860;2023-08-21T02:55:40;98633.67;;;19.80;83.52
62057;BME280;48016;50.284;18.860;2023-08-21T02:58:06;98635.18;;;19.79;83.62
62057;BME280;48016;50.284;18.860;2023-08-21T03:00:32;98632.33;;;19.79;83.61
62057;BME280;48016;50.284;18.860;2023-08-21T03:02:58;98635.76;;;19.78;83.60
62057;BME280;48016;50.284;18.860;2023-08-21T03:05:24;98632.43;;;19.76;83.66
62057;BME280;48016;50.284;18.860;2023-08-21T03:07:50;98633.72;;;19.75;83.72
62057;BME280;48016;50.284;18.860;2023-08-21T03:10:16;98632.35;;;19.75;83.80
62057;BME280;48016;50.284;18.860;2023-08-21T03:12:41;98632.02;;;19.73;83.78
62057;BME280;48016;50.284;18.860;2023-08-21T03:15:08;98634.30;;;19.72;83.94
62057;BME280;48016;50.284;18.860;2023-08-21T03:17:33;98638.09;;;19.71;83.93
62057;BME280;48016;50.284;18.860;2023-08-21T03:19:59;98641.84;;;19.71;83.94
62057;BME280;48016;50.284;18.860;2023-08-21T03:22:25;98643.15;;;19.70;83.99
62057;BME280;48016;50.284;18.860;2023-08-21T03:24:51;98647.95;;;19.70;83.97
62057;BME280;48016;50.284;18.860;2023-08-21T03:27:18;98647.79;;;19.69;83.99
62057;BME280;48016;50.284;18.860;2023-08-21T03:29:44;98645.21;;;19.69;83.98
62057;BME280;48016;50.284;18.860;2023-08-21T03:32:17;98644.34;;;19.69;84.12
62057;BME280;48016;50.284;18.860;2023-08-21T03:34:43;98641.11;;;19.69;84.02
62057;BME280;48016;50.284;18.860;2023-08-21T03:37:10;98641.89;;;19.68;84.08
62057;BME280;48016;50.284;18.860;2023-08-21T03:39:36;98641.09;;;19.67;84.10
62057;BME280;48016;50.284;18.860;2023-08-21T03:42:02;98640.48;;;19.67;84.11
62057;BME280;48016;50.284;18.860;2023-08-21T03:44:28;98637.16;;;19.66;84.12
62057;BME280;48016;50.284;18.860;2023-08-21T03:46:54;98639.20;;;19.64;84.11
62057;BME280;48016;50.284;18.860;2023-08-21T03:49:20;98634.83;;;19.63;84.13
62057;BME280;48016;50.284;18.860;2023-08-21T03:51:46;98640.11;;;19.63;84.20
62057;BME280;48016;50.284;18.860;2023-08-21T03:54:12;98640.23;;;19.62;84.18
62057;BME280;48016;50.284;18.860;2023-08-21T03:56:38;98639.52;;;19.62;84.23
62057;BME280;48016;50.284;18.860;2023-08-21T03:59:04;98637.20;;;19.63;84.23
62057;BME280;48016;50.284;18.860;2023-08-21T04:01:30;98636.48;;;19.62;84.33
62057;BME280;48016;50.284;18.860;2023-08-21T04:03:56;98637.52;;;19.63;84.53
62057;BME280;48016;50.284;18.860;2023-08-21T04:06:22;98640.08;;;19.64;84.45
62057;BME280;48016;50.284;18.860;2023-08-21T04:08:47;98645.30;;;19.67;84.47
62057;BME280;48016;50.284;18.860;2023-08-21T04:11:13;98644.16;;;19.72;84.44
62057;BME280;48016;50.284;18.860;2023-08-21T04:13:39;98645.42;;;19.77;84.49
62057;BME280;48016;50.284;18.860;2023-08-21T04:16:05;98644.52;;;19.83;84.46
62057;BME280;48016;50.284;18.860;2023-08-21T04:18:31;98639.57;;;19.89;84.46
62057;BME280;48016;50.284;18.860;2023-08-21T04:20:57;98637.23;;;19.96;84.41
62057;BME280;48016;50.284;18.860;2023-08-21T04:23:23;98630.09;;;20.01;84.46
62057;BME280;48016;50.284;18.860;2023-08-21T04:25:49;98630.75;;;20.06;84.48
62057;BME280;48016;50.284;18.860;2023-08-21T04:28:14;98626.55;;;20.11;84.62
62057;BME280;48016;50.284;18.860;2023-08-21T04:30:41;98626.80;;;20.15;84.57
62057;BME280;48016;50.284;18.860;2023-08-21T04:33:07;98629.98;;;20.20;84.56
62057;BME280;48016;50.284;18.860;2023-08-21T04:35:37;98626.42;;;20.27;84.42
62057;BME280;48016;50.284;18.860;2023-08-21T04:38:04;98624.80;;;20.36;84.30
62057;BME280;48016;50.284;18.860;2023-08-21T04:40:30;98632.14;;;20.45;84.26
62057;BME280;48016;50.284;18.860;2023-08-21T04:42:56;98633.05;;;20.56;83.96
62057;BME280;48016;50.284;18.860;2023-08-21T04:45:22;98638.38;;;20.68;83.90
62057;BME280;48016;50.284;18.860;2023-08-21T04:47:48;98634.64;;;20.79;83.84
62057;BME280;48016;50.284;18.860;2023-08-21T04:50:14;98639.96;;;20.88;83.84
62057;BME280;48016;50.284;18.860;2023-08-21T04:52:41;98631.80;;;20.93;83.76
62057;BME280;48016;50.284;18.860;2023-08-21T04:55:07;98636.89;;;20.95;83.53
62057;BME280;48016;50.284;18.860;2023-08-21T04:57:33;98643.98;;;21.00;83.32
62057;BME280;48016;50.284;18.860;2023-08-21T04:59:59;98644.77;;;21.07;83.16
62057;BME280;48016;50.284;18.860;2023-08-21T05:02:25;98645.60;;;21.15;83.02
62057;BME280;48016;50.284;18.860;2023-08-21T05:04:51;98642.58;;;21.26;82.89
62057;BME280;48016;50.284;18.860;2023-08-21T05:07:17;98643.02;;;21.39;82.83
62057;BME280;48016;50.284;18.860;2023-08-21T05:09:43;98650.35;;;21.56;82.70
62057;BME280;48016;50.284;18.860;2023-08-21T05:12:09;98649.42;;;21.74;82.67
62057;BME280;48016;50.284;18.860;2023-08-21T05:14:35;98651.04;;;21.96;82.29
62057;BME280;48016;50.284;18.860;2023-08-21T05:17:00;98653.12;;;22.19;82.24
62057;BME280;48016;50.284;18.860;2023-08-21T05:19:26;98652.63;;;22.39;81.80
62057;BME280;48016;50.284;18.860;2023-08-21T05:21:52;98653.43;;;22.55;81.23
62057;BME280;48016;50.284;18.860;2023-08-21T05:24:18;98656.04;;;22.69;80.82
62057;BME280;48016;50.284;18.860;2023-08-21T05:26:44;98659.98;;;22.89;80.29
62057;BME280;48016;50.284;18.860;2023-08-21T05:29:10;98657.48;;;23.04;79.40
62057;BME280;48016;50.284;18.860;2023-08-21T05:31:36;98662.38;;;23.11;78.47
62057;BME280;48016;50.284;18.860;2023-08-21T05:34:02;98664.59;;;23.16;77.83
62057;BME280;48016;50.284;18.860;2023-08-21T05:36:28;98668.54;;;23.19;77.53
62057;BME280;48016;50.284;18.860;2023-08-21T05:38:56;98669.25;;;23.23;77.14
62057;BME280;48016;50.284;18.860;2023-08-21T05:41:22;98669.67;;;23.25;76.53
62057;BME280;48016;50.284;18.860;2023-08-21T05:43:48;98665.30;;;23.29;76.63
62057;BME280;48016;50.284;18.860;2023-08-21T05:46:14;98664.30;;;23.33;76.43
62057;BME280;48016;50.284;18.860;2023-08-21T05:48:40;98666.59;;;23.37;76.38
62057;BME280;48016;50.284;18.860;2023-08-21T05:51:06;98671.00;;;23.40;76.02
62057;BME280;48016;50.284;18.860;2023-08-21T05:53:32;98675.08;;;23.43;75.97
62057;BME280;48016;50.284;18.860;2023-08-21T05:55:58;98674.15;;;23.50;75.57
62057;BME280;48016;50.284;18.860;2023-08-21T05:58:24;98677.24;;;23.54;75.38
62057;BME280;48016;50.284;18.860;2023-08-21T06:00:55;98685.77;;;23.52;74.93
62057;BME280;48016;50.284;18.860;2023-08-21T06:03:21;98690.16;;;23.48;74.68
62057;BME280;48016;50.284;18.860;2023-08-21T06:05:47;98695.27;;;23.44;74.49
62057;BME280;48016;50.284;18.860;2023-08-21T06:08:13;98699.77;;;23.40;74.32
62057;BME280;48016;50.284;18.860;2023-08-21T06:10:39;98702.11;;;23.36;74.21
62057;BME280;48016;50.284;18.860;2023-08-21T06:13:05;98706.11;;;23.32;74.46
62057;BME280;48016;50.284;18.860;2023-08-21T06:15:30;98713.73;;;23.27;74.33
62057;BME280;48016;50.284;18.860;2023-08-21T06:17:58;98714.75;;;23.22;74.32
62057;BME280;48016;50.284;18.860;2023-08-21T06:20:24;98714.73;;;23.16;74.50
62057;BME280;48016;50.284;18.860;2023-08-21T06:22:50;98713.02;;;23.09;74.74
62057;BME280;48016;50.284;18.860;2023-08-21T06:25:16;98713.01;;;23.03;74.95
62057;BME280;48016;50.284;18.860;2023-08-21T06:27:45;98720.98;;;22.98;74.97
62057;BME280;48016;50.284;18.860;2023-08-21T06:30:11;98728.52;;;22.97;75.14
62057;BME280;48016;50.284;18.860;2023-08-21T06:32:37;98729.80;;;22.95;75.20
62057;BME280;48016;50.284;18.860;2023-08-21T06:35:03;98729.81;;;22.94;74.99
62057;BME280;48016;50.284;18.860;2023-08-21T06:37:29;98731.11;;;22.93;74.82
62057;BME280;48016;50.284;18.860;2023-08-21T06:39:55;98728.94;;;22.94;74.67
62057;BME280;48016;50.284;18.860;2023-08-21T06:42:21;98730.48;;;22.96;74.57
62057;BME280;48016;50.284;18.860;2023-08-21T06:44:47;98731.44;;;22.97;74.57
62057;BME280;48016;50.284;18.860;2023-08-21T06:47:13;98739.51;;;22.99;74.61
62057;BME280;48016;50.284;18.860;2023-08-21T06:49:38;98740.02;;;22.99;74.37
62057;BME280;48016;50.284;18.860;2023-08-21T06:52:04;98738.88;;;23.00;74.25
62057;BME280;48016;50.284;18.860;2023-08-21T06:54:30;98738.04;;;23.01;74.37
62057;BME280;48016;50.284;18.860;2023-08-21T06:56:56;98739.86;;;23.01;74.20
62057;BME280;48016;50.284;18.860;2023-08-21T06:59:22;98742.98;;;23.02;74.11
62057;BME280;48016;50.284;18.860;2023-08-21T07:01:48;98743.72;;;23.00;73.84
62057;BME280;48016;50.284;18.860;2023-08-21T07:04:14;98748.42;;;22.95;74.03
62057;BME280;48016;50.284;18.860;2023-08-21T07:06:40;98743.95;;;22.96;74.14
62057;BME280;48016;50.284;18.860;2023-08-21T07:09:06;98744.85;;;22.95;74.14
62057;BME280;48016;50.284;18.860;2023-08-21T07:11:32;98749.64;;;22.93;74.21
62057;BME280;48016;50.284;18.860;2023-08-21T07:13:58;98755.02;;;22.94;74.28
62057;BME280;48016;50.284;18.860;2023-08-21T07:16:24;98754.48;;;22.95;74.18
62057;BME280;48016;50.284;18.860;2023-08-21T07:18:52;98757.40;;;22.94;74.03
62057;BME280;48016;50.284;18.860;2023-08-21T07:21:18;98759.30;;;22.89;74.16
62057;BME280;48016;50.284;18.860;2023-08-21T07:23:43;98753.92;;;22.89;74.28
62057;BME280;48016;50.284;18.860;2023-08-21T07:26:09;98753.95;;;22.89;74.37
62057;BME280;48016;50.284;18.860;2023-08-21T07:28:35;98757.79;;;22.87;74.37
62057;BME280;48016;50.284;18.860;2023-08-21T07:31:01;98754.15;;;22.87;74.50
62057;BME280;48016;50.284;18.860;2023-08-21T07:33:27;98752.65;;;22.89;74.64
62057;BME280;48016;50.284;18.860;2023-08-21T07:36:11;98756.23;;;22.86;74.60
62057;BME280;48016;50.284;18.860;2023-08-21T07:38:45;98759.35;;;22.87;74.75
62057;BME280;48016;50.284;18.860;2023-08-21T07:41:12;98759.45;;;22.91;74.74
62057;BME280;48016;50.284;18.860;2023-08-21T07:43:43;98757.70;;;22.91;74.72
62057;BME280;48016;50.284;18.860;2023-08-21T07:46:13;98762.16;;;22.93;74.75
62057;BME280;48016;50.284;18.860;2023-08-21T07:48:42;98763.56;;;22.98;74.57
62057;BME280;48016;50.284;18.860;2023-08-21T07:51:08;98760.52;;;23.04;74.44
62057;BME280;48016;50.284;18.860;2023-08-21T07:53:34;98755.78;;;23.07;74.12
62057;BME280;48016;50.284;18.860;2023-08-21T07:56:01;98757.20;;;23.12;74.21
62057;BME280;48016;50.284;18.860;2023-08-21T07:58:29;98754.98;;;23.19;74.08
62057;BME280;48016;50.284;18.860;2023-08-21T08:00:56;98753.77;;;23.28;73.88
62057;BME280;48016;50.284;18.860;2023-08-21T08:03:22;98753.04;;;23.34;73.68
62057;BME280;48016;50.284;18.860;2023-08-21T08:05:48;98757.77;;;23.44;73.50
62057;BME280;48016;50.284;18.860;2023-08-21T08:08:16;98756.55;;;23.58;73.33
62057;BME280;48016;50.284;18.860;2023-08-21T08:10:42;98758.27;;;23.76;73.23
62057;BME280;48016;50.284;18.860;2023-08-21T08:13:08;98762.55;;;23.95;72.29
62057;BME280;48016;50.284;18.860;2023-08-21T08:15:34;98757.76;;;24.02;71.50
62057;BME280;48016;50.284;18.860;2023-08-21T08:18:01;98754.89;;;24.10;71.40
62057;BME280;48016;50.284;18.860;2023-08-21T08:20:27;98757.20;;;24.19;71.35
62057;BME280;48016;50.284;18.860;2023-08-21T08:22:53;98756.55;;;24.32;71.14
62057;BME280;48016;50.284;18.860;2023-08-21T08:25:19;98757.31;;;24.40;70.47
62057;BME280;48016;50.284;18.860;2023-08-21T08:27:45;98756.10;;;24.51;70.52
62057;BME280;48016;50.284;18.860;2023-08-21T08:30:11;98752.22;;;24.59;70.08
62057;BME280;48016;50.284;18.860;2023-08-21T08:32:37;98753.02;;;24.65;69.86
62057;BME280;48016;50.284;18.860;2023-08-21T08:35:03;98752.73;;;24.79;69.75
62057;BME280;48016;50.284;18.860;2023-08-21T08:37:29;98751.94;;;24.90;69.30
62057;BME280;48016;50.284;18.860;2023-08-21T08:39:55;98755.05;;;24.99;68.91
62057;BME280;48016;50.284;18.860;2023-08-21T08:42:21;98758.81;;;25.05;68.12
62057;BME280;48016;50.284;18.860;2023-08-21T08:44:47;98763.54;;;25.16;68.56
62057;BME280;48016;50.284;18.860;2023-08-21T08:47:15;98763.60;;;25.34;68.79
62057;BME280;48016;50.284;18.860;2023-08-21T08:49:43;98761.28;;;25.49;68.27
62057;BME280;48016;50.284;18.860;2023-08-21T08:52:09;98754.11;;;25.64;68.01
62057;BME280;48016;50.284;18.860;2023-08-21T08:54:35;98752.96;;;25.79;67.14
62057;BME280;48016;50.284;18.860;2023-08-21T08:57:04;98755.89;;;25.86;65.79
62057;BME280;48016;50.284;18.860;2023-08-21T08:59:30;98757.21;;;25.90;65.33
62057;BME280;48016;50.284;18.860;2023-08-21T09:01:57;98752.14;;;25.87;65.44
62057;BME280;48016;50.284;18.860;2023-08-21T09:04:23;98751.80;;;25.93;65.96
62057;BME280;48016;50.284;18.860;2023-08-21T09:06:49;98750.83;;;26.07;66.08
62057;BME280;48016;50.284;18.860;2023-08-21T09:09:15;98742.02;;;26.32;66.22
62057;BME280;48016;50.284;18.860;2023-08-21T09:11:44;98737.58;;;26.57;66.18
62057;BME280;48016;50.284;18.860;2023-08-21T09:14:11;98738.33;;;26.86;65.47
62057;BME280;48016;50.284;18.860;2023-08-21T09:16:37;98740.15;;;27.10;64.94
62057;BME280;48016;50.284;18.860;2023-08-21T09:19:03;98740.85;;;27.27;64.20
62057;BME280;48016;50.284;18.860;2023-08-21T09:21:29;98741.08;;;27.44;63.55
62057;BME280;48016;50.284;18.860;2023-08-21T09:23:58;98742.35;;;27.62;62.38
62057;BME280;48016;50.284;18.860;2023-08-21T09:26:25;98740.63;;;27.78;61.93
62057;BME280;48016;50.284;18.860;2023-08-21T09:28:52;98738.55;;;28.04;61.84
62057;BME280;48016;50.284;18.860;2023-08-21T09:31:29;98738.55;;;28.34;60.62
62057;BME280;48016;50.284;18.860;2023-08-21T09:33:57;98733.70;;;28.54;59.12
62057;BME280;48016;50.284;18.860;2023-08-21T09:36:23;98733.16;;;28.66;59.30
62057;BME280;48016;50.284;18.860;2023-08-21T09:38:51;98730.82;;;28.79;59.45
62057;BME280;48016;50.284;18.860;2023-08-21T09:41:22;98722.54;;;28.91;59.59
62057;BME280;48016;50.284;18.860;2023-08-21T09:43:49;98722.84;;;29.01;58.99
62057;BME280;48016;50.284;18.860;2023-08-21T09:46:17;98726.02;;;29.08;58.90
62057;BME280;48016;50.284;18.860;2023-08-21T09:48:44;98728.84;;;29.18;58.03
62057;BME280;48016;50.284;18.860;2023-08-21T09:51:11;98727.08;;;29.26;58.03
62057;BME280;48016;50.284;18.860;2023-08-21T09:53:37;98729.81;;;29.40;58.22
62057;BME280;48016;50.284;18.860;2023-08-21T09:56:05;98730.43;;;29.57;57.94
62057;BME280;48016;50.284;18.860;2023-08-21T09:58:31;98722.42;;;29.66;56.98
62057;BME280;48016;50.284;18.860;2023-08-21T10:00:58;98721.14;;;29.71;56.03
62057;BME280;48016;50.284;18.860;2023-08-21T10:03:25;98721.31;;;29.77;55.42
62057;BME280;48016;50.284;18.860;2023-08-21T10:05:54;98723.58;;;29.84;56.24
62057;BME280;48016;50.284;18.860;2023-08-21T10:08:24;98724.65;;;29.90;56.91
62057;BME280;48016;50.284;18.860;2023-08-21T10:10:51;98718.33;;;29.93;56.41
62057;BME280;48016;50.284;18.860;2023-08-21T10:13:17;98717.68;;;29.93;55.57
62057;BME280;48016;50.284;18.860;2023-08-21T10:15:44;98717.88;;;29.91;56.28
62057;BME280;48016;50.284;18.860;2023-08-21T10:18:34;98718.70;;;29.87;56.74
62057;BME280;48016;50.284;18.860;2023-08-21T10:23:37;98722.04;;;29.72;56.35
62057;BME280;48016;50.284;18.860;2023-08-21T10:26:05;98722.30;;;29.66;57.16
62057;BME280;48016;50.284;18.860;2023-08-21T10:33:51;98725.73;;;29.36;56.95
62057;BME280;48016;50.284;18.860;2023-08-21T10:36:36;98725.16;;;29.26;57.00
62057;BME280;48016;50.284;18.860;2023-08-21T10:39:04;98723.46;;;29.16;56.94
62057;BME280;48016;50.284;18.860;2023-08-21T10:41:36;98719.27;;;29.05;57.26
62057;BME280;48016;50.284;18.860;2023-08-21T10:44:05;98708.44;;;28.97;57.69
62057;BME280;48016;50.284;18.860;2023-08-21T10:46:50;98709.52;;;28.91;58.27
62057;BME280;48016;50.284;18.860;2023-08-21T10:49:16;98709.93;;;28.84;58.40
62057;BME280;48016;50.284;18.860;2023-08-21T10:51:43;98699.53;;;28.77;59.49
62057;BME280;48016;50.284;18.860;2023-08-21T10:54:13;98697.08;;;28.70;59.50
62057;BME280;48016;50.284;18.860;2023-08-21T10:56:39;98694.09;;;28.67;59.46
62057;BME280;48016;50.284;18.860;2023-08-21T10:59:05;98691.27;;;28.66;59.27
62057;BME280;48016;50.284;18.860;2023-08-21T11:01:44;98686.09;;;28.65;58.83
62057;BME280;48016;50.284;18.860;2023-08-21T11:04:11;98685.79;;;28.66;59.00
62057;BME280;48016;50.284;18.860;2023-08-21T11:06:38;98690.27;;;28.68;60.41
62057;BME280;48016;50.284;18.860;2023-08-21T11:09:05;98689.27;;;28.70;59.76
62057;BME280;48016;50.284;18.860;2023-08-21T11:11:31;98692.80;;;28.71;59.21
62057;BME280;48016;50.284;18.860;2023-08-21T11:13:57;98698.88;;;28.72;59.32
62057;BME280;48016;50.284;18.860;2023-08-21T11:16:24;98702.41;;;28.70;59.31
62057;BME280;48016;50.284;18.860;2023-08-21T11:18:50;98708.71;;;28.67;59.08
62057;BME280;48016;50.284;18.860;2023-08-21T11:21:16;98707.14;;;28.68;59.04
62057;BME280;48016;50.284;18.860;2023-08-21T11:23:42;98706.16;;;28.70;59.14
62057;BME280;48016;50.284;18.860;2023-08-21T11:26:11;98707.46;;;28.72;59.03
62057;BME280;48016;50.284;18.860;2023-08-21T11:28:38;98711.94;;;28.70;59.00
62057;BME280;48016;50.284;18.860;2023-08-21T11:31:05;98708.47;;;28.72;58.95
62057;BME280;48016;50.284;18.860;2023-08-21T11:33:32;98705.47;;;28.76;58.82
62057;BME280;48016;50.284;18.860;2023-08-21T11:35:59;98706.42;;;28.76;58.61
62057;BME280;48016;50.284;18.860;2023-08-21T11:38:26;98700.58;;;28.73;58.59
62057;BME280;48016;50.284;18.860;2023-08-21T11:40:56;98698.56;;;28.73;58.41
62057;BME280;48016;50.284;18.860;2023-08-21T11:43:42;98698.79;;;28.72;58.59
62057;BME280;48016;50.284;18.860;2023-08-21T11:46:10;98696.69;;;28.70;58.49
62057;BME280;48016;50.284;18.860;2023-08-21T11:48:40;98690.25;;;28.70;58.65
62057;BME280;48016;50.284;18.860;2023-08-21T11:51:07;98695.56;;;28.74;58.97
62057;BME280;48016;50.284;18.860;2023-08-21T11:53:37;98697.02;;;28.78;58.81
62057;BME280;48016;50.284;18.860;2023-08-21T11:56:12;98700.18;;;28.86;58.31
62057;BME280;48016;50.284;18.860;2023-08-21T11:58:42;98697.94;;;28.93;58.07
62057;BME280;48016;50.284;18.860;2023-08-21T12:01:08;98700.23;;;29.03;57.79
62057;BME280;48016;50.284;18.860;2023-08-21T12:03:36;98697.71;;;29.04;57.06
62057;BME280;48016;50.284;18.860;2023-08-21T12:06:11;98694.39;;;29.05;57.28
62057;BME280;48016;50.284;18.860;2023-08-21T12:08:38;98691.98;;;29.09;57.72
62057;BME280;48016;50.284;18.860;2023-08-21T12:11:05;98691.23;;;29.11;58.00
62057;BME280;48016;50.284;18.860;2023-08-21T12:13:31;98688.48;;;29.13;57.74
62057;BME280;48016;50.284;18.860;2023-08-21T12:15:57;98688.45;;;29.11;57.74
62057;BME280;48016;50.284;18.860;2023-08-21T12:18:23;98689.94;;;29.10;57.50
62057;BME280;48016;50.284;18.860;2023-08-21T12:20:49;98693.23;;;29.11;57.39
62057;BME280;48016;50.284;18.860;2023-08-21T12:23:15;98690.83;;;29.14;57.53
62057;BME280;48016;50.284;18.860;2023-08-21T12:25:41;98691.07;;;29.19;57.48
62057;BME280;48016;50.284;18.860;2023-08-21T12:28:07;98688.27;;;29.23;57.63
62057;BME280;48016;50.284;18.860;2023-08-21T12:30:34;98690.84;;;29.28;57.71
62057;BME280;48016;50.284;18.860;2023-08-21T12:33:00;98688.59;;;29.32;57.13
62057;BME280;48016;50.284;18.860;2023-08-21T12:35:26;98690.78;;;29.34;56.69
62057;BME280;48016;50.284;18.860;2023-08-21T12:37:57;98688.33;;;29.35;56.55
62057;BME280;48016;50.284;18.860;2023-08-21T12:40:23;98689.79;;;29.32;56.31
62057;BME280;48016;50.284;18.860;2023-08-21T12:42:49;98685.91;;;29.28;56.28
62057;BME280;48016;50.284;18.860;2023-08-21T12:45:16;98680.33;;;29.23;56.27
62057;BME280;48016;50.284;18.860;2023-08-21T12:47:42;98678.13;;;29.16;56.06
62057;BME280;48016;50.284;18.860;2023-08-21T12:50:08;98673.33;;;29.02;56.21
62057;BME280;48016;50.284;18.860;2023-08-21T12:52:35;98664.61;;;28.97;56.40
62057;BME280;48016;50.284;18.860;2023-08-21T12:55:01;98662.03;;;28.95;56.72
62057;BME280;48016;50.284;18.860;2023-08-21T12:57:30;98663.13;;;28.98;56.84
62057;BME280;48016;50.284;18.860;2023-08-21T12:59:56;98660.91;;;28.98;56.65